createdAt,value
2018-04-13T00:00:41.607Z,8.87
2018-04-13T00:03:09.239Z,9.50
2018-04-13T00:05:36.915Z,9.33
2018-04-13T00:08:04.545Z,10.17
2018-04-13T00:10:32.171Z,9.80
2018-04-13T00:12:59.851Z,9.33
2018-04-13T00:15:27.470Z,12.03
2018-04-13T00:17:55.156Z,10.07
2018-04-13T00:20:22.874Z,13.40
2018-04-13T00:22:50.615Z,10.53
2018-04-13T00:25:18.276Z,11.63
2018-04-13T00:27:45.971Z,10.57
2018-04-13T00:30:13.599Z,9.93
2018-04-13T00:32:41.315Z,9.27
2018-04-13T00:35:08.959Z,10.00
2018-04-13T00:37:36.649Z,10.30
2018-04-13T00:40:04.267Z,10.03
2018-04-13T00:42:31.976Z,10.03
2018-04-13T00:44:59.622Z,10.13
2018-04-13T00:47:27.315Z,10.23
2018-04-13T00:49:54.947Z,10.30
2018-04-13T00:52:22.612Z,7.37
2018-04-13T00:54:50.258Z,11.43
2018-04-13T00:57:17.919Z,7.83
2018-04-13T00:59:45.549Z,5.03
2018-04-13T01:02:13.194Z,9.17
2018-04-13T01:04:40.860Z,6.53
2018-04-13T01:07:08.528Z,5.13
2018-04-13T01:09:36.150Z,4.77
2018-04-13T01:12:03.838Z,14.60
2018-04-13T01:14:31.440Z,9.07
2018-04-13T01:16:59.120Z,7.20
2018-04-13T01:19:26.794Z,5.17
2018-04-13T01:21:54.448Z,5.93
2018-04-13T01:24:22.067Z,4.80
2018-04-13T01:26:49.759Z,4.13
2018-04-13T01:29:17.387Z,6.27
2018-04-13T01:31:45.062Z,4.80
2018-04-13T01:34:12.681Z,5.73
2018-04-13T01:36:40.376Z,3.43
2018-04-13T01:39:08.091Z,3.60
2018-04-13T01:41:35.774Z,4.07
2018-04-13T01:44:03.392Z,3.70
2018-04-13T01:46:31.097Z,3.13
2018-04-13T01:48:58.775Z,2.10
2018-04-13T01:51:26.434Z,2.33
2018-04-13T01:53:54.046Z,1.67
2018-04-13T01:56:21.718Z,1.50
2018-04-13T01:58:49.360Z,0.90
2018-04-13T02:01:17.018Z,0.93
2018-04-13T02:03:44.692Z,0.80
2018-04-13T02:06:12.361Z,0.67
2018-04-13T02:08:40.016Z,0.40
2018-04-13T02:11:07.745Z,1.00
2018-04-13T02:13:35.358Z,0.57
2018-04-13T02:16:03.046Z,0.67
2018-04-13T02:18:30.706Z,0.70
2018-04-13T02:20:58.350Z,0.40
2018-04-13T02:23:26.003Z,0.80
2018-04-13T02:25:53.640Z,0.67
2018-04-13T02:28:21.310Z,0.97
2018-04-13T02:30:48.932Z,0.50
2018-04-13T02:33:16.593Z,1.03
2018-04-13T02:35:44.239Z,0.97
2018-04-13T02:38:11.932Z,1.50
2018-04-13T02:40:39.587Z,0.50
2018-04-13T02:43:07.259Z,0.60
2018-04-13T02:45:34.898Z,0.80
2018-04-13T02:48:02.569Z,0.70
2018-04-13T02:50:30.193Z,0.87
2018-04-13T02:52:57.875Z,1.03
2018-04-13T02:55:25.519Z,0.60
2018-04-13T02:57:53.240Z,0.53
2018-04-13T03:00:20.859Z,0.73
2018-04-13T03:02:48.525Z,0.50
2018-04-13T03:05:16.155Z,1.27
2018-04-13T03:07:43.824Z,0.60
2018-04-13T03:10:11.462Z,0.80
2018-04-13T03:12:39.126Z,0.50
2018-04-13T03:15:06.740Z,1.07
2018-04-13T03:17:34.449Z,0.40
2018-04-13T03:20:02.051Z,0.40
2018-04-13T03:22:29.749Z,1.10
2018-04-13T03:24:57.402Z,0.90
2018-04-13T03:27:25.068Z,0.50
2018-04-13T03:29:52.672Z,0.77
2018-04-13T03:32:20.346Z,0.60
2018-04-13T03:34:47.968Z,0.40
2018-04-13T03:37:15.654Z,1.33
2018-04-13T03:39:43.270Z,0.60
2018-04-13T03:42:10.980Z,0.60
2018-04-13T03:44:38.592Z,0.60
2018-04-13T03:47:06.295Z,1.83
2018-04-13T03:49:33.942Z,1.43
2018-04-13T03:52:01.584Z,0.40
2018-04-13T03:54:29.252Z,0.50
2018-04-13T03:56:57.100Z,1.27
2018-04-13T03:59:24.743Z,0.57
2018-04-13T04:01:52.408Z,1.23
2018-04-13T04:04:20.035Z,0.60
2018-04-13T04:06:47.679Z,2.77
2018-04-13T04:09:15.374Z,0.50
2018-04-13T04:11:43.029Z,0.50
2018-04-13T04:14:10.647Z,0.73
2018-04-13T04:16:38.330Z,0.43
2018-04-13T04:19:05.968Z,0.87
2018-04-13T04:24:53.386Z,0.63
2018-04-13T04:27:21.058Z,0.50
2018-04-13T04:29:48.681Z,0.60
2018-04-13T04:32:16.328Z,0.40
2018-04-13T04:34:43.959Z,0.80
2018-04-13T04:37:11.646Z,0.60
2018-04-13T04:39:39.258Z,1.00
2018-04-13T04:42:06.930Z,0.57
2018-04-13T04:44:34.543Z,0.50
2018-04-13T04:47:02.210Z,0.63
2018-04-13T04:49:29.872Z,0.50
2018-04-13T04:51:57.576Z,0.83
2018-04-13T04:54:25.232Z,0.60
2018-04-13T04:56:52.851Z,0.50
2018-04-13T04:59:20.512Z,0.40
2018-04-13T05:01:48.150Z,0.40
2018-04-13T05:04:15.833Z,0.63
2018-04-13T05:06:43.448Z,1.47
2018-04-13T05:09:11.110Z,1.23
2018-04-13T05:11:38.751Z,1.00
2018-04-13T05:14:06.420Z,0.70
2018-04-13T05:16:34.036Z,1.13
2018-04-13T05:19:01.707Z,0.40
2018-04-13T05:21:29.328Z,0.67
2018-04-13T05:23:57.034Z,0.70
2018-04-13T05:26:24.724Z,2.00
2018-04-13T05:28:52.405Z,0.77
2018-04-13T05:31:20.076Z,0.90
2018-04-13T05:33:47.761Z,1.93
2018-04-13T05:36:15.392Z,1.13
2018-04-13T05:38:43.050Z,1.73
2018-04-13T05:41:10.697Z,1.03
2018-04-13T05:43:38.369Z,0.70
2018-04-13T05:46:06.024Z,0.90
2018-04-13T05:48:33.687Z,0.60
2018-04-13T05:51:01.339Z,0.80
2018-04-13T05:53:29.036Z,1.43
2018-04-13T05:55:56.709Z,0.50
2018-04-13T05:58:24.375Z,1.17
2018-04-13T06:00:51.989Z,0.60
2018-04-13T06:03:19.652Z,1.03
2018-04-13T06:05:47.279Z,0.53
2018-04-13T06:08:14.968Z,0.50
2018-04-13T06:10:42.598Z,1.27
2018-04-13T06:13:10.272Z,0.77
2018-04-13T06:15:37.939Z,0.60
2018-04-13T06:18:05.603Z,0.70
2018-04-13T06:20:33.258Z,1.07
2018-04-13T06:23:00.907Z,2.67
2018-04-13T06:25:28.561Z,7.23
2018-04-13T06:27:56.234Z,1.00
2018-04-13T06:30:23.872Z,1.30
2018-04-13T06:32:51.555Z,0.60
2018-04-13T06:35:19.181Z,0.40
2018-04-13T06:37:46.826Z,0.70
2018-04-13T06:40:14.451Z,0.77
2018-04-13T06:42:42.147Z,1.30
2018-04-13T06:45:09.799Z,0.60
2018-04-13T06:47:37.450Z,0.80
2018-04-13T06:50:05.055Z,0.73
2018-04-13T06:52:32.719Z,2.83
2018-04-13T06:55:00.598Z,0.80
2018-04-13T06:57:28.279Z,0.53
2018-04-13T06:59:55.978Z,1.80
2018-04-13T07:02:23.613Z,0.80
2018-04-13T07:04:51.306Z,0.63
2018-04-13T07:07:18.930Z,0.73
2018-04-13T07:09:46.597Z,1.47
2018-04-13T07:12:14.240Z,1.37
2018-04-13T07:14:41.916Z,0.40
2018-04-13T07:17:09.535Z,1.53
2018-04-13T07:19:37.214Z,0.60
2018-04-13T07:22:04.852Z,0.97
2018-04-13T07:24:32.527Z,0.80
2018-04-13T07:27:00.163Z,1.47
2018-04-13T07:29:27.897Z,0.80
2018-04-13T07:31:55.869Z,0.50
2018-04-13T07:34:23.266Z,0.80
2018-04-13T07:36:50.934Z,1.53
2018-04-13T07:39:19.120Z,0.63
2018-04-13T07:41:47.041Z,1.03
2018-04-13T07:44:14.711Z,0.60
2018-04-13T07:46:42.322Z,0.60
2018-04-13T07:49:09.994Z,2.23
2018-04-13T07:51:38.250Z,0.87
2018-04-13T07:54:05.472Z,1.20
2018-04-13T07:56:33.473Z,0.80
2018-04-13T07:59:02.015Z,0.40
2018-04-13T08:01:29.023Z,1.00
2018-04-13T08:03:56.860Z,1.57
2018-04-13T08:06:24.452Z,0.50
2018-04-13T08:08:52.422Z,1.23
2018-04-13T08:11:20.236Z,0.70
2018-04-13T08:13:48.015Z,0.80
2018-04-13T08:16:15.696Z,0.80
2018-04-13T08:18:43.562Z,1.30
2018-04-13T08:21:11.282Z,1.10
2018-04-13T08:23:39.010Z,1.13
2018-04-13T08:26:06.771Z,0.40
2018-04-13T08:28:34.994Z,1.40
2018-04-13T08:31:02.691Z,0.80
2018-04-13T08:33:30.379Z,0.60
2018-04-13T08:35:58.012Z,1.30
2018-04-13T08:38:25.740Z,2.10
2018-04-13T08:40:53.401Z,0.50
2018-04-13T08:43:21.149Z,0.60
2018-04-13T08:45:48.896Z,1.80
2018-04-13T08:48:16.664Z,0.73
2018-04-13T08:50:44.351Z,0.40
2018-04-13T08:53:12.024Z,1.47
2018-04-13T08:55:39.763Z,0.93
2018-04-13T08:58:07.837Z,1.10
2018-04-13T09:00:35.492Z,2.53
2018-04-13T09:03:03.379Z,1.00
2018-04-13T09:05:31.078Z,0.60
2018-04-13T09:07:58.744Z,2.97
2018-04-13T09:10:26.443Z,9.17
2018-04-13T09:12:54.271Z,8.90
2018-04-13T09:15:22.064Z,10.00
2018-04-13T09:17:49.999Z,10.03
2018-04-13T09:20:17.758Z,8.40
2018-04-13T09:22:45.512Z,8.20
2018-04-13T09:25:13.494Z,7.87
2018-04-13T09:27:41.254Z,6.50
2018-04-13T09:30:09.010Z,8.10
2018-04-13T09:32:36.788Z,7.33
2018-04-13T09:35:04.502Z,8.70
2018-04-13T09:37:32.155Z,6.93
2018-04-13T09:40:00.241Z,6.03
2018-04-13T09:42:27.889Z,7.10
2018-04-13T09:44:56.090Z,6.30
2018-04-13T09:47:23.981Z,6.17
2018-04-13T09:49:51.795Z,8.40
2018-04-13T09:52:19.399Z,6.80
2018-04-13T09:54:47.075Z,8.37
2018-04-13T09:57:14.742Z,7.07
2018-04-13T09:59:42.440Z,8.70
2018-04-13T10:02:10.110Z,9.20
2018-04-13T10:04:41.640Z,11.70
2018-04-13T10:07:09.309Z,8.23
2018-04-13T10:09:36.936Z,9.90
2018-04-13T10:12:04.642Z,8.57
2018-04-13T10:14:32.259Z,10.20
2018-04-13T10:16:59.911Z,9.90
2018-04-13T10:19:27.570Z,12.17
2018-04-13T10:21:55.237Z,9.50
2018-04-13T10:24:22.863Z,8.97
2018-04-13T10:26:50.542Z,9.90
2018-04-13T10:29:18.161Z,10.47
2018-04-13T10:31:45.828Z,9.60
2018-04-13T10:34:13.466Z,9.63
2018-04-13T10:36:41.135Z,10.13
2018-04-13T10:39:08.797Z,9.37
2018-04-13T10:41:36.458Z,12.43
2018-04-13T10:44:04.105Z,9.93
2018-04-13T10:46:31.760Z,10.03
2018-04-13T10:48:59.386Z,9.23
2018-04-13T10:51:27.047Z,9.20
2018-04-13T10:53:54.682Z,8.00
2018-04-13T10:56:22.339Z,7.50
2018-04-13T10:58:49.947Z,6.90
2018-04-13T11:01:17.604Z,6.50
2018-04-13T11:03:45.302Z,7.10
2018-04-13T11:06:12.959Z,6.53
2018-04-13T11:08:40.580Z,7.33
2018-04-13T11:11:08.239Z,4.77
2018-04-13T11:13:35.897Z,4.87
2018-04-13T11:16:03.545Z,4.23
2018-04-13T11:18:31.208Z,3.53
2018-04-13T11:20:58.861Z,6.13
2018-04-13T11:23:26.508Z,3.57
2018-04-13T11:25:54.169Z,4.50
2018-04-13T11:28:21.854Z,4.73
2018-04-13T11:30:49.472Z,3.60
2018-04-13T11:33:17.128Z,3.07
2018-04-13T11:35:44.740Z,4.03
2018-04-13T11:38:12.444Z,2.80
2018-04-13T11:40:40.078Z,3.90
2018-04-13T11:43:07.762Z,3.97
2018-04-13T11:45:35.382Z,8.47
2018-04-13T11:48:03.094Z,5.83
2018-04-13T11:50:30.717Z,4.57
2018-04-13T11:52:58.374Z,4.93
2018-04-13T11:55:26.027Z,3.50
2018-04-13T11:57:53.691Z,3.00
2018-04-13T12:00:21.307Z,3.17
2018-04-13T12:02:48.957Z,2.73
2018-04-13T12:05:16.608Z,2.67
2018-04-13T12:07:44.220Z,3.03
2018-04-13T12:10:11.907Z,2.20
2018-04-13T12:12:39.527Z,2.40
2018-04-13T12:15:07.200Z,1.50
2018-04-13T12:17:34.841Z,1.80
2018-04-13T12:20:02.499Z,2.10
2018-04-13T12:22:30.179Z,1.40
2018-04-13T12:24:57.859Z,1.17
2018-04-13T12:27:25.479Z,1.13
2018-04-13T12:29:53.143Z,1.10
2018-04-13T12:32:20.800Z,1.20
2018-04-13T12:34:48.480Z,1.93
2018-04-13T12:37:16.107Z,1.50
2018-04-13T12:39:43.780Z,0.73
2018-04-13T12:42:11.402Z,1.63
2018-04-13T12:44:39.061Z,0.73
2018-04-13T12:47:06.700Z,2.97
2018-04-13T12:49:34.349Z,0.77
2018-04-13T12:52:01.966Z,1.13
2018-04-13T12:54:29.650Z,1.10
2018-04-13T12:56:57.288Z,0.93
2018-04-13T12:59:24.977Z,1.53
2018-04-13T13:01:52.604Z,0.80
2018-04-13T13:04:20.342Z,0.73
2018-04-13T13:06:47.981Z,0.80
2018-04-13T13:09:15.635Z,1.00
2018-04-13T13:11:43.247Z,2.03
2018-04-13T13:14:10.934Z,1.57
2018-04-13T13:16:38.563Z,0.57
2018-04-13T13:19:06.252Z,0.80
2018-04-13T13:21:33.903Z,0.90
2018-04-13T13:24:01.633Z,1.60
2018-04-13T13:26:29.320Z,0.83
2018-04-13T13:28:56.951Z,1.30
2018-04-13T13:31:24.628Z,0.80
2018-04-13T13:33:52.231Z,1.10
2018-04-13T13:36:19.909Z,1.90
2018-04-13T13:38:47.541Z,0.63
2018-04-13T13:41:15.199Z,1.10
2018-04-13T13:43:42.822Z,1.10
2018-04-13T13:46:10.529Z,0.97
2018-04-13T13:48:38.147Z,1.23
2018-04-13T13:51:05.798Z,1.10
2018-04-13T13:53:33.430Z,1.20
2018-04-13T13:56:01.081Z,0.80
2018-04-13T13:58:28.716Z,1.63
2018-04-13T14:00:56.401Z,1.33
2018-04-13T14:03:24.053Z,1.33
2018-04-13T14:05:51.698Z,1.30
2018-04-13T14:08:19.318Z,1.77
2018-04-13T14:10:46.980Z,1.93
2018-04-13T14:13:14.587Z,1.87
2018-04-13T14:15:42.235Z,1.40
2018-04-13T14:18:09.831Z,1.33
2018-04-13T14:20:37.485Z,1.40
2018-04-13T14:23:05.103Z,1.33
2018-04-13T14:25:32.755Z,1.07
2018-04-13T14:28:00.362Z,1.37
2018-04-13T14:30:28.051Z,1.53
2018-04-13T14:32:55.662Z,1.37
2018-04-13T14:35:23.342Z,1.67
2018-04-13T14:37:50.951Z,1.80
2018-04-13T14:40:18.578Z,1.13
2018-04-13T14:42:46.234Z,1.33
2018-04-13T14:45:13.864Z,1.43
2018-04-13T14:47:41.524Z,1.53
2018-04-13T14:50:09.169Z,1.90
2018-04-13T14:52:36.860Z,1.87
2018-04-13T14:55:04.590Z,1.60
2018-04-13T14:57:32.252Z,1.77
2018-04-13T14:59:59.867Z,2.40
2018-04-13T15:02:27.518Z,1.60
2018-04-13T15:04:55.210Z,1.80
2018-04-13T15:07:23.023Z,1.80
2018-04-13T15:09:50.625Z,4.07
2018-04-13T15:12:18.277Z,2.83
2018-04-13T15:14:45.895Z,3.13
2018-04-13T15:17:13.538Z,2.33
2018-04-13T15:19:41.150Z,1.63
2018-04-13T15:22:08.818Z,2.60
2018-04-13T15:24:36.816Z,1.83
2018-04-13T15:27:04.482Z,1.70
2018-04-13T15:29:32.151Z,2.10
2018-04-13T15:31:59.852Z,2.90
2018-04-13T15:34:27.547Z,2.70
2018-04-13T15:36:55.380Z,2.13
2018-04-13T15:39:23.230Z,3.30
2018-04-13T15:41:50.844Z,2.40
2018-04-13T15:44:18.535Z,2.27
2018-04-13T15:46:46.139Z,1.90
2018-04-13T15:49:13.827Z,2.13
2018-04-13T15:51:41.459Z,2.20
2018-04-13T15:54:09.208Z,2.30
2018-04-13T15:56:36.874Z,2.33
2018-04-13T15:59:04.539Z,2.10
2018-04-13T16:01:32.424Z,3.10
2018-04-13T16:04:00.080Z,2.97
2018-04-13T16:06:27.718Z,2.40
2018-04-13T16:08:55.700Z,2.23
2018-04-13T16:11:24.133Z,1.90
2018-04-13T16:13:52.114Z,3.23
2018-04-13T16:16:19.750Z,3.17
2018-04-13T16:18:47.431Z,1.97
2018-04-13T16:21:15.039Z,2.77
2018-04-13T16:23:42.651Z,2.13
2018-04-13T16:26:10.339Z,1.97
2018-04-13T16:28:37.987Z,1.97
2018-04-13T16:31:05.650Z,2.00
2018-04-13T16:33:33.288Z,2.23
2018-04-13T16:36:00.939Z,1.60
2018-04-13T16:38:28.639Z,2.93
2018-04-13T16:40:56.319Z,1.90
2018-04-13T16:43:23.989Z,2.27
2018-04-13T16:45:51.653Z,1.50
2018-04-13T16:48:19.293Z,2.90
2018-04-13T16:50:46.959Z,1.63
2018-04-13T16:53:14.598Z,2.00
2018-04-13T16:55:42.275Z,1.73
2018-04-13T16:58:09.896Z,1.50
2018-04-13T17:00:37.570Z,2.77
2018-04-13T17:03:05.193Z,1.50
2018-04-13T17:05:32.869Z,2.47
2018-04-13T17:08:00.500Z,2.07
2018-04-13T17:10:28.160Z,1.80
2018-04-13T17:12:55.813Z,1.80
2018-04-13T17:15:23.462Z,2.67
2018-04-13T17:17:51.107Z,1.30
2018-04-13T17:20:18.770Z,1.73
2018-04-13T17:22:46.400Z,3.33
2018-04-13T17:25:14.104Z,1.60
2018-04-13T17:27:41.744Z,2.23
2018-04-13T17:30:09.408Z,1.97
2018-04-13T17:32:37.072Z,1.90
2018-04-13T17:35:04.736Z,2.53
2018-04-13T17:37:32.393Z,1.73
2018-04-13T17:40:00.037Z,1.90
2018-04-13T17:42:27.784Z,1.80
2018-04-13T17:44:55.434Z,2.27
2018-04-13T17:47:23.142Z,2.97
2018-04-13T17:49:50.763Z,4.90
2018-04-13T17:52:18.468Z,2.77
2018-04-13T17:54:46.119Z,3.83
2018-04-13T17:57:13.787Z,2.83
2018-04-13T17:59:41.407Z,3.80
2018-04-13T18:02:09.123Z,3.33
2018-04-13T18:04:36.739Z,3.33
2018-04-13T18:07:04.413Z,3.20
2018-04-13T18:09:32.055Z,2.73
2018-04-13T18:11:59.702Z,3.30
2018-04-13T18:14:27.377Z,3.10
2018-04-13T18:16:55.129Z,2.87
2018-04-13T18:19:22.747Z,3.90
2018-04-13T18:21:50.507Z,6.37
2018-04-13T18:24:18.130Z,4.67
2018-04-13T18:26:45.876Z,4.00
2018-04-13T18:29:13.843Z,3.63
2018-04-13T18:31:41.540Z,4.23
2018-04-13T18:34:09.191Z,3.77
2018-04-13T18:36:36.861Z,4.03
2018-04-13T18:39:04.585Z,5.43
2018-04-13T18:41:32.268Z,4.30
2018-04-13T18:43:59.907Z,4.37
2018-04-13T18:46:27.563Z,5.13
2018-04-13T18:48:55.182Z,4.63
2018-04-13T18:51:22.858Z,4.90
2018-04-13T18:53:50.468Z,6.07
2018-04-13T18:56:18.132Z,4.10
2018-04-13T18:58:45.768Z,4.00
2018-04-13T19:01:13.439Z,4.70
2018-04-13T19:03:41.080Z,4.30
2018-04-13T19:06:08.740Z,3.90
2018-04-13T19:08:36.351Z,3.40
2018-04-13T19:11:04.015Z,7.00
2018-04-13T19:13:31.653Z,5.30
2018-04-13T19:15:59.323Z,4.63
2018-04-13T19:18:26.940Z,5.87
2018-04-13T19:20:54.607Z,5.10
2018-04-13T19:23:22.240Z,4.60
2018-04-13T19:25:49.919Z,4.20
2018-04-13T19:28:17.805Z,4.00
2018-04-13T19:30:45.525Z,5.00
2018-04-13T19:33:13.189Z,4.10
2018-04-13T19:35:40.866Z,5.00
2018-04-13T19:38:08.499Z,4.63
2018-04-13T19:40:36.189Z,4.03
2018-04-13T19:43:03.854Z,6.17
2018-04-13T19:45:31.533Z,5.13
2018-04-13T19:47:59.219Z,5.23
2018-04-13T19:50:26.842Z,9.57
2018-04-13T19:52:54.529Z,5.03
2018-04-13T19:55:22.194Z,6.03
2018-04-13T19:57:49.890Z,4.20
2018-04-13T20:00:17.519Z,6.00
2018-04-13T20:02:45.237Z,5.10
2018-04-13T20:05:12.878Z,7.40
2018-04-13T20:07:40.651Z,5.47
2018-04-13T20:10:08.272Z,7.67
2018-04-13T20:12:35.947Z,6.30
2018-04-13T20:15:03.598Z,4.67
2018-04-13T20:17:31.264Z,6.43
2018-04-13T20:19:58.880Z,6.07
2018-04-13T20:22:26.592Z,7.83
2018-04-13T20:24:54.219Z,7.33
2018-04-13T20:27:21.977Z,10.07
2018-04-13T20:29:49.709Z,7.90
2018-04-13T20:32:17.399Z,9.20
2018-04-13T20:34:45.011Z,7.57
2018-04-13T20:37:12.699Z,10.40
2018-04-13T20:39:40.328Z,8.33
2018-04-13T20:42:07.991Z,7.30
2018-04-13T20:44:35.677Z,8.50
2018-04-13T20:47:03.389Z,7.80
2018-04-13T20:49:31.028Z,8.67
2018-04-13T20:51:58.690Z,9.90
2018-04-13T20:54:26.367Z,7.87
2018-04-13T20:56:54.113Z,8.30
2018-04-13T20:59:21.810Z,8.53
2018-04-13T21:01:49.439Z,9.27
2018-04-13T21:04:17.114Z,9.90
2018-04-13T21:06:44.828Z,11.90
2018-04-13T21:09:12.486Z,9.90
2018-04-13T21:11:40.129Z,9.67
2018-04-13T21:14:07.783Z,8.93
2018-04-13T21:16:35.409Z,10.90
2018-04-13T21:19:03.064Z,10.10
2018-04-13T21:21:30.726Z,12.27
2018-04-13T21:23:58.413Z,12.63
2018-04-13T21:26:26.053Z,12.87
2018-04-13T21:28:53.744Z,13.10
2018-04-13T21:31:21.368Z,13.10
2018-04-13T21:33:49.040Z,9.57
2018-04-13T21:36:16.652Z,11.83
2018-04-13T21:38:44.339Z,13.73
2018-04-13T21:41:12.029Z,11.40
2018-04-13T21:43:39.716Z,13.03
2018-04-13T21:46:07.615Z,13.07
2018-04-13T21:48:35.288Z,13.77
2018-04-13T21:51:02.930Z,14.07
2018-04-13T21:53:30.640Z,13.27
2018-04-13T21:55:58.327Z,13.10
2018-04-13T21:58:25.950Z,15.30
2018-04-13T22:00:53.622Z,13.00
2018-04-13T22:03:21.247Z,14.87
2018-04-13T22:05:48.941Z,13.73
2018-04-13T22:08:16.600Z,12.80
2018-04-13T22:10:44.259Z,12.83
2018-04-13T22:13:23.641Z,11.87
2018-04-13T22:15:51.302Z,10.77
2018-04-13T22:18:18.958Z,12.87
2018-04-13T22:20:46.618Z,11.93
2018-04-13T22:23:14.296Z,9.90
2018-04-13T22:25:41.966Z,11.00
2018-04-13T22:28:09.588Z,13.30
2018-04-13T22:30:37.284Z,11.80
2018-04-13T22:33:04.919Z,11.10
2018-04-13T22:35:32.608Z,13.50
2018-04-13T22:38:00.275Z,12.77
2018-04-13T22:40:28.047Z,12.63
2018-04-13T22:42:55.694Z,14.03
2018-04-13T22:45:23.359Z,8.93
2018-04-13T22:47:51.018Z,11.80
2018-04-13T22:50:18.709Z,12.47
2018-04-13T22:52:46.358Z,10.33
2018-04-13T22:55:14.028Z,9.77
2018-04-13T22:57:41.643Z,9.60
2018-04-13T23:00:09.391Z,12.10
2018-04-13T23:02:37.049Z,10.90
2018-04-13T23:05:04.714Z,10.60
2018-04-13T23:07:32.351Z,12.90
2018-04-13T23:09:59.987Z,8.70
2018-04-13T23:12:27.665Z,10.20
2018-04-13T23:14:55.296Z,10.03
2018-04-13T23:17:22.979Z,12.37
2018-04-13T23:19:50.656Z,10.93
2018-04-13T23:22:30.100Z,13.10
2018-04-13T23:24:57.731Z,12.33
2018-04-13T23:27:25.395Z,14.33
2018-04-13T23:29:53.036Z,10.83
2018-04-13T23:32:20.739Z,9.67
2018-04-13T23:34:48.407Z,12.90
2018-04-13T23:37:16.079Z,9.27
2018-04-13T23:39:43.702Z,10.33
2018-04-13T23:42:11.359Z,11.67
2018-04-13T23:44:38.986Z,12.37
2018-04-13T23:47:06.636Z,10.80
2018-04-13T23:49:34.267Z,11.77
2018-04-13T23:52:01.929Z,11.17
2018-04-13T23:54:29.623Z,10.57
2018-04-13T23:56:57.304Z,12.63
2018-04-13T23:59:25.007Z,9.73
